METAR Data
IDs: Format: Raw Decoded Include TAF

Data at: 0312 UTC 19 Oct 2021

KMFE 190253Z 11006KT 10SM CLR 22/16 A3005 RMK AO2 SLP173 T02220156 $